Nearby METAR Reports

 

KDAW - Rochester, New Hampshire, USA
Distance from station: SSE 10mi, 16km
Updated: Sun, 19-Jan-2020 10:51am EST
Clear
Clear
 Wind from varies
Wind: varies 3 mph , 6 km/h
Temperature: 34°F , 1°C
Dew Point: 25°F , -4°C
Humidity: 70%
Barometer: 29.57 inHg , 1001.4 hPa
Clouds: Clear
Visibility: 10 miles , 16 km
2020/01/19 15:51 KDAW 191551Z AUTO VRB03KT 10SM CLR 01/M04 A2957 RMK AO2 SLP014 T00061044
KSFM - Sanford Muni, Maine, USA
Distance from station: E 13mi, 21km
Updated: Sun, 19-Jan-2020 10:56am EST
Clear
Clear
 Wind from W
Wind: W 12 mph , 19 km/h
Temperature: 34°F , 1°C
Wind Chill: 25°F , -4°C
Dew Point: 25°F , -4°C
Humidity: 70%
Barometer: 29.58 inHg , 1001.7 hPa
Clouds: Clear
Visibility: 10 miles , 16 km
2020/01/19 15:56 KSFM 191556Z AUTO 27010KT 10SM CLR 01/M04 A2958 RMK AO2 SLP021 T00111039 FZRANO PNO $
 
KLCI - Laconia Muni, New Hampshire, USA
Distance from station: WNW 24mi, 39km
Updated: Sun, 19-Jan-2020 10:56am EST
Partly cloudy
Partly cloudy
 Wind from SSW
Wind: SSW 5 mph , 7 km/h
Temperature: 27°F , -3°C
Wind Chill: 21°F , -6°C
Dew Point: 21°F , -6°C
Humidity: 80%
Barometer: 29.58 inHg , 1001.7 hPa
Clouds: Partly cloudy
Visibility: 10 miles , 16 km
Cloud details: Partly cloudy 5500 ft
2020/01/19 15:56 KLCI 191556Z AUTO 21004KT 10SM SCT055 M03/M06 A2958 RMK AO2 SLP026 T10281061 FZRANO